createdAt,value
2023-02-23T00:01:54.870Z,38.53
2023-02-23T00:04:23.538Z,35.72
2023-02-23T00:06:54.127Z,39.83
2023-02-23T00:09:24.511Z,36.75
2023-02-23T00:11:53.824Z,42.95
2023-02-23T00:14:24.609Z,38.78
2023-02-23T00:16:51.357Z,43.20
2023-02-23T00:19:18.165Z,39.45
2023-02-23T00:21:46.641Z,45.00
2023-02-23T00:24:15.740Z,40.40
2023-02-23T00:26:43.035Z,39.90
2023-02-23T00:29:17.451Z,40.25
2023-02-23T00:31:49.274Z,38.38
2023-02-23T00:34:20.993Z,39.83
2023-02-23T00:36:54.200Z,37.53
2023-02-23T00:39:23.298Z,35.42
2023-02-23T00:41:52.330Z,38.30
2023-02-23T00:44:20.915Z,41.58
2023-02-23T00:46:50.963Z,38.05
2023-02-23T00:49:19.403Z,38.25
2023-02-23T00:51:46.889Z,48.72
2023-02-23T00:54:15.483Z,35.10
2023-02-23T00:56:43.150Z,35.67
2023-02-23T00:59:10.326Z,39.83
2023-02-23T01:01:38.399Z,43.03
2023-02-23T01:04:07.140Z,39.50
2023-02-23T01:06:37.476Z,48.92
2023-02-23T01:09:09.320Z,42.60
2023-02-23T01:11:36.054Z,43.95
2023-02-23T01:14:02.823Z,41.45
2023-02-23T01:16:33.304Z,41.03
2023-02-23T01:19:04.408Z,41.08
2023-02-23T01:21:35.431Z,48.22
2023-02-23T01:24:02.836Z,47.05
2023-02-23T01:26:36.443Z,47.50
2023-02-23T01:29:13.741Z,52.85
2023-02-23T01:31:45.242Z,38.03
2023-02-23T01:34:14.147Z,44.10
2023-02-23T01:36:43.443Z,39.15
2023-02-23T01:39:18.675Z,43.05
2023-02-23T01:41:45.628Z,48.10
2023-02-23T01:44:15.381Z,51.05
2023-02-23T01:46:45.666Z,42.20
2023-02-23T01:49:20.406Z,40.05
2023-02-23T01:51:59.592Z,41.67
2023-02-23T01:54:31.193Z,48.88
2023-02-23T01:57:01.840Z,48.05
2023-02-23T01:59:36.417Z,46.38
2023-02-23T02:02:06.273Z,52.00
2023-02-23T02:04:45.284Z,49.45
2023-02-23T02:07:23.476Z,51.60
2023-02-23T02:10:12.786Z,55.30
2023-02-23T02:12:45.435Z,60.45
2023-02-23T02:15:19.524Z,51.22
2023-02-23T02:18:12.406Z,54.97
2023-02-23T02:21:15.094Z,57.70
2023-02-23T02:24:40.233Z,59.75
2023-02-23T02:27:34.196Z,57.35
2023-02-23T02:30:42.047Z,52.53
2023-02-23T02:33:46.722Z,62.33
2023-02-23T02:36:51.026Z,54.22
2023-02-23T02:39:53.482Z,58.40
2023-02-23T02:42:48.673Z,60.42
2023-02-23T02:45:25.121Z,60.20
2023-02-23T02:48:38.616Z,60.20
2023-02-23T02:51:55.421Z,56.13
2023-02-23T02:54:44.262Z,55.50
2023-02-23T02:57:12.826Z,55.28
2023-02-23T03:00:07.538Z,58.72
2023-02-23T03:02:56.301Z,58.58
2023-02-23T03:06:05.012Z,57.67
2023-02-23T03:09:09.507Z,60.17
2023-02-23T03:11:59.810Z,57.00
2023-02-23T03:15:17.963Z,59.42
2023-02-23T03:18:07.487Z,54.78
2023-02-23T03:20:52.640Z,54.28
2023-02-23T03:24:20.707Z,56.17
2023-02-23T03:27:29.791Z,51.83
2023-02-23T03:30:30.418Z,51.30
2023-02-23T03:33:25.098Z,63.60
2023-02-23T03:36:38.278Z,67.32
2023-02-23T03:39:47.812Z,56.30
2023-02-23T03:42:38.602Z,52.05
2023-02-23T03:45:31.473Z,60.08
2023-02-23T03:48:18.701Z,54.88
2023-02-23T03:51:19.582Z,54.65
2023-02-23T03:54:27.680Z,53.42
2023-02-23T03:57:15.446Z,60.22
2023-02-23T04:00:11.554Z,53.33
2023-02-23T04:03:00.088Z,55.10
2023-02-23T04:05:47.610Z,53.15
2023-02-23T04:08:36.394Z,44.28
2023-02-23T04:11:33.646Z,50.88
2023-02-23T04:14:04.553Z,50.78
2023-02-23T04:16:32.573Z,50.33
2023-02-23T04:18:59.453Z,56.30
2023-02-23T04:21:26.346Z,52.65
2023-02-23T04:23:53.047Z,53.67
2023-02-23T04:26:19.780Z,57.97
2023-02-23T04:28:46.518Z,57.70
2023-02-23T04:31:13.324Z,61.30
2023-02-23T04:33:40.048Z,54.50
2023-02-23T04:36:07.292Z,54.03
2023-02-23T04:38:34.041Z,58.42
2023-02-23T04:41:00.801Z,59.25
2023-02-23T04:43:27.560Z,58.75
2023-02-23T04:45:54.348Z,55.47
2023-02-23T04:48:21.114Z,60.20
2023-02-23T04:50:47.830Z,54.45
2023-02-23T04:53:14.589Z,56.30
2023-02-23T04:55:41.351Z,65.70
2023-02-23T04:58:13.561Z,61.20
2023-02-23T05:00:41.130Z,59.90
2023-02-23T05:03:07.913Z,59.88
2023-02-23T05:05:34.636Z,63.25
2023-02-23T05:08:01.479Z,61.40
2023-02-23T05:10:28.923Z,69.45
2023-02-23T05:12:56.271Z,61.05
2023-02-23T05:15:23.115Z,65.90
2023-02-23T05:17:49.875Z,69.70
2023-02-23T05:20:16.616Z,67.38
2023-02-23T05:22:43.345Z,61.45
2023-02-23T05:25:10.460Z,67.15
2023-02-23T05:27:37.819Z,67.80
2023-02-23T05:30:07.670Z,67.57
2023-02-23T05:32:34.876Z,64.97
2023-02-23T05:35:02.986Z,63.53
2023-02-23T05:37:29.714Z,58.92
2023-02-23T06:02:15.587Z,49.67
2023-02-23T06:04:42.485Z,48.58
2023-02-23T06:07:09.193Z,50.67
2023-02-23T06:09:36.137Z,49.00
2023-02-23T06:12:02.876Z,46.58
2023-02-23T06:14:29.642Z,62.05
2023-02-23T06:16:56.442Z,55.88
2023-02-23T06:19:23.222Z,55.92
2023-02-23T06:21:49.941Z,65.93
2023-02-23T06:24:17.742Z,47.90
2023-02-23T06:26:44.648Z,55.60
2023-02-23T06:29:12.307Z,53.50
2023-02-23T06:31:39.364Z,54.38
2023-02-23T06:34:06.204Z,54.80
2023-02-23T06:36:32.966Z,57.17
2023-02-23T06:39:00.134Z,57.88
2023-02-23T06:41:27.262Z,66.28
2023-02-23T06:43:54.095Z,62.45
2023-02-23T06:46:21.245Z,66.85
2023-02-23T06:48:48.047Z,70.32
2023-02-23T06:51:14.782Z,62.10
2023-02-23T06:53:41.513Z,69.93
2023-02-23T06:56:08.420Z,70.80
2023-02-23T06:58:35.245Z,75.25
2023-02-23T07:01:02.246Z,74.03
2023-02-23T07:03:28.980Z,71.05
2023-02-23T07:05:55.781Z,79.45
2023-02-23T07:08:22.519Z,79.60
2023-02-23T07:10:49.473Z,77.60
2023-02-23T07:13:16.439Z,81.13
2023-02-23T07:15:43.515Z,77.70
2023-02-23T07:18:10.309Z,78.07
2023-02-23T07:20:37.132Z,81.90
2023-02-23T07:23:03.891Z,71.15
2023-02-23T07:25:30.981Z,85.55
2023-02-23T07:27:58.983Z,79.35
2023-02-23T07:30:26.223Z,71.95
2023-02-23T07:32:54.087Z,87.88
2023-02-23T07:35:21.082Z,74.82
2023-02-23T07:37:47.803Z,83.85
2023-02-23T07:40:14.859Z,82.15
2023-02-23T07:42:41.609Z,91.10
2023-02-23T07:45:09.604Z,90.70
2023-02-23T07:47:39.243Z,87.55
2023-02-23T07:50:10.243Z,88.07
2023-02-23T07:52:38.794Z,88.40
2023-02-23T07:55:07.581Z,84.93
2023-02-23T07:57:34.941Z,84.10
2023-02-23T08:00:02.218Z,90.38
2023-02-23T08:02:29.546Z,89.35
2023-02-23T08:04:56.280Z,89.40
2023-02-23T08:07:24.328Z,96.15
2023-02-23T08:09:51.492Z,93.70
2023-02-23T08:12:18.454Z,82.15
2023-02-23T08:14:45.240Z,86.72
2023-02-23T08:17:12.540Z,85.15
2023-02-23T08:19:39.966Z,86.68
2023-02-23T08:22:09.907Z,82.47
2023-02-23T08:24:37.649Z,69.28
2023-02-23T08:27:04.614Z,78.47
2023-02-23T08:29:31.876Z,84.57
2023-02-23T08:31:58.761Z,74.97
2023-02-23T08:34:25.677Z,76.28
2023-02-23T08:36:53.802Z,87.32
2023-02-23T08:39:21.490Z,83.53
2023-02-23T08:41:48.249Z,79.40
2023-02-23T08:44:15.068Z,87.72
2023-02-23T08:46:42.432Z,94.53
2023-02-23T08:49:10.653Z,75.18
2023-02-23T08:51:37.378Z,81.07
2023-02-23T08:54:04.104Z,86.95
2023-02-23T08:56:31.676Z,89.32
2023-02-23T08:58:58.407Z,89.40
2023-02-23T09:01:25.165Z,80.47
2023-02-23T09:03:52.067Z,94.15
2023-02-23T09:06:22.433Z,81.32
2023-02-23T09:08:49.729Z,80.97
2023-02-23T09:11:16.502Z,85.20
2023-02-23T09:13:44.464Z,85.90
2023-02-23T09:16:11.316Z,88.53
2023-02-23T09:18:38.759Z,83.57
2023-02-23T09:21:08.456Z,79.93
2023-02-23T09:23:36.471Z,81.80
2023-02-23T09:26:08.416Z,80.68
2023-02-23T09:28:36.205Z,73.32
2023-02-23T09:31:08.907Z,86.95
2023-02-23T09:33:36.250Z,81.30
2023-02-23T09:36:16.183Z,77.88
2023-02-23T09:38:45.354Z,78.28
2023-02-23T09:41:43.393Z,76.10
2023-02-23T09:44:34.181Z,72.18
2023-02-23T09:47:19.494Z,65.40
2023-02-23T09:49:48.153Z,65.63
2023-02-23T09:52:44.921Z,67.72
2023-02-23T09:55:14.669Z,75.28
2023-02-23T09:57:46.213Z,69.75
2023-02-23T10:00:27.320Z,71.70
2023-02-23T10:03:19.204Z,82.90
2023-02-23T10:06:02.013Z,74.53
2023-02-23T10:09:32.600Z,71.13
2023-02-23T10:12:13.387Z,68.45
2023-02-23T10:15:25.346Z,73.65
2023-02-23T10:18:50.228Z,72.50
2023-02-23T10:21:33.550Z,65.70
2023-02-23T10:24:05.824Z,69.30
2023-02-23T10:26:49.591Z,67.78
2023-02-23T10:29:32.771Z,68.80
2023-02-23T10:32:07.810Z,71.25
2023-02-23T10:34:37.103Z,67.40
2023-02-23T10:37:06.971Z,67.60
2023-02-23T10:39:34.474Z,68.72
2023-02-23T10:42:06.618Z,68.22
2023-02-23T10:47:06.963Z,57.90
2023-02-23T10:49:54.664Z,59.97
2023-02-23T10:52:33.982Z,58.58
2023-02-23T10:55:05.278Z,53.72
2023-02-23T10:57:39.889Z,58.10
2023-02-23T11:00:16.184Z,60.08
2023-02-23T11:02:47.602Z,49.22
2023-02-23T11:05:46.048Z,55.47
2023-02-23T11:08:37.411Z,53.63
2023-02-23T11:11:16.229Z,42.65
2023-02-23T11:13:47.075Z,48.53
2023-02-23T11:16:26.697Z,41.53
2023-02-23T11:19:00.173Z,43.75
2023-02-23T11:21:34.773Z,41.08
2023-02-23T11:24:19.810Z,44.20
2023-02-23T11:26:48.914Z,41.22
2023-02-23T11:29:37.899Z,36.53
2023-02-23T11:32:20.911Z,33.28
2023-02-23T11:35:11.771Z,32.45
2023-02-23T11:37:38.534Z,29.55
2023-02-23T11:40:28.550Z,26.88
2023-02-23T11:43:18.986Z,30.05
2023-02-23T11:45:49.744Z,28.40
2023-02-23T11:48:42.791Z,29.17
2023-02-23T11:51:10.320Z,27.17
2023-02-23T11:53:46.075Z,27.58
2023-02-23T11:56:22.133Z,23.65
2023-02-23T11:58:50.934Z,28.83
2023-02-23T12:01:23.569Z,28.05
2023-02-23T12:03:52.414Z,29.80
2023-02-23T12:06:40.628Z,30.25
2023-02-23T12:09:26.915Z,31.10
2023-02-23T12:12:03.897Z,24.77
2023-02-23T12:14:57.081Z,30.63
2023-02-23T12:17:51.289Z,28.95
2023-02-23T12:20:32.776Z,26.45
2023-02-23T12:23:25.878Z,24.35
2023-02-23T12:25:57.032Z,26.10
2023-02-23T12:28:48.137Z,24.57
2023-02-23T12:31:48.434Z,23.40
2023-02-23T12:34:23.038Z,27.60
2023-02-23T12:37:20.328Z,24.83
2023-02-23T12:39:57.519Z,25.42
2023-02-23T12:42:36.215Z,21.45
2023-02-23T12:45:06.930Z,25.58
2023-02-23T12:48:00.566Z,24.52
2023-02-23T12:50:50.216Z,24.85
2023-02-23T12:53:40.130Z,24.52
2023-02-23T12:56:37.318Z,25.35
2023-02-23T12:59:53.647Z,23.85
2023-02-23T13:02:30.214Z,28.08
2023-02-23T13:05:34.378Z,27.15
2023-02-23T13:08:57.926Z,27.65
2023-02-23T13:11:47.483Z,33.80
2023-02-23T13:14:31.438Z,46.35
2023-02-23T13:17:25.614Z,56.33
2023-02-23T13:20:07.039Z,35.60
2023-02-23T13:22:48.579Z,32.42
2023-02-23T13:26:10.095Z,30.58
2023-02-23T13:29:06.418Z,30.48
2023-02-23T13:31:37.115Z,25.70
2023-02-23T13:34:12.529Z,28.92
2023-02-23T13:36:40.722Z,31.00
2023-02-23T13:39:27.836Z,29.63
2023-02-23T13:42:28.567Z,29.08
2023-02-23T13:45:32.165Z,27.05
2023-02-23T13:48:28.032Z,27.55
2023-02-23T13:51:09.632Z,26.83
2023-02-23T13:53:49.227Z,30.55
2023-02-23T13:56:23.256Z,31.02
2023-02-23T13:59:00.225Z,29.20
2023-02-23T14:01:32.577Z,27.63
2023-02-23T14:04:03.781Z,26.20
2023-02-23T14:06:33.612Z,26.80
2023-02-23T14:09:17.002Z,26.42
2023-02-23T14:11:50.925Z,28.17
2023-02-23T14:14:33.140Z,27.70
2023-02-23T14:17:16.100Z,28.67
2023-02-23T14:20:13.277Z,29.75
2023-02-23T14:23:19.867Z,27.25
2023-02-23T14:26:09.940Z,29.20
2023-02-23T14:28:46.399Z,28.73
2023-02-23T14:31:13.168Z,35.20
2023-02-23T14:33:43.054Z,32.20
2023-02-23T14:36:38.545Z,30.98
2023-02-23T14:39:17.513Z,34.67
2023-02-23T14:41:56.545Z,34.33
2023-02-23T14:44:32.361Z,35.15
2023-02-23T14:47:09.039Z,34.75
2023-02-23T14:49:44.923Z,35.35
2023-02-23T14:52:29.108Z,35.35
2023-02-23T14:55:22.692Z,37.63
2023-02-23T14:57:49.969Z,31.27
2023-02-23T15:00:28.905Z,38.50
2023-02-23T15:03:13.541Z,34.05
2023-02-23T15:05:52.647Z,32.17
2023-02-23T15:08:23.979Z,34.38
2023-02-23T15:11:13.640Z,34.85
2023-02-23T15:13:43.139Z,36.65
2023-02-23T15:16:29.105Z,31.95
2023-02-23T15:19:33.266Z,34.03
2023-02-23T15:22:02.052Z,33.17
2023-02-23T15:24:41.995Z,35.08
2023-02-23T15:27:26.779Z,32.42
2023-02-23T15:29:55.442Z,33.13
2023-02-23T15:32:25.238Z,32.50
2023-02-23T15:34:53.640Z,32.70
2023-02-23T15:37:38.163Z,36.80
2023-02-23T15:40:11.983Z,31.38
2023-02-23T15:42:52.734Z,30.63
2023-02-23T15:45:40.170Z,31.08
2023-02-23T15:48:18.163Z,32.22
2023-02-23T15:50:53.074Z,28.60
2023-02-23T15:53:33.902Z,27.77
2023-02-23T15:56:19.836Z,27.17
2023-02-23T15:58:56.985Z,30.45
2023-02-23T16:01:28.382Z,26.35
2023-02-23T16:04:02.921Z,28.30
2023-02-23T16:06:41.774Z,23.20
2023-02-23T16:09:19.816Z,26.10
2023-02-23T16:11:54.752Z,22.95
2023-02-23T16:14:24.037Z,26.15
2023-02-23T16:17:08.449Z,24.52
2023-02-23T16:19:40.994Z,23.83
2023-02-23T16:22:20.525Z,21.50
2023-02-23T16:25:17.810Z,23.08
2023-02-23T16:27:47.096Z,25.52
2023-02-23T16:30:32.079Z,25.27
2023-02-23T16:33:08.320Z,25.33
2023-02-23T16:35:45.214Z,22.40
2023-02-23T16:38:33.331Z,23.63
2023-02-23T16:41:00.195Z,23.50
2023-02-23T16:43:27.167Z,23.63
2023-02-23T16:45:54.003Z,21.75
2023-02-23T16:48:20.735Z,21.15
2023-02-23T16:50:48.879Z,22.42
2023-02-23T16:53:16.862Z,22.98
2023-02-23T16:55:52.935Z,24.20
2023-02-23T16:58:25.709Z,20.48
2023-02-23T17:00:53.526Z,24.05
2023-02-23T17:03:27.673Z,23.10
2023-02-23T17:05:54.880Z,22.02
2023-02-23T17:08:21.933Z,20.00
2023-02-23T17:10:54.291Z,21.90
2023-02-23T17:13:24.205Z,20.60
2023-02-23T17:15:53.967Z,19.73
2023-02-23T17:18:27.832Z,20.63
2023-02-23T17:20:56.624Z,19.23
2023-02-23T17:23:38.118Z,21.10
2023-02-23T17:26:10.882Z,19.90
2023-02-23T17:28:38.883Z,21.50
2023-02-23T17:31:06.974Z,18.90
2023-02-23T17:33:34.723Z,24.67
2023-02-23T17:36:06.732Z,26.35
2023-02-23T17:38:34.073Z,25.75
2023-02-23T17:41:03.720Z,22.58
2023-02-23T17:43:30.763Z,19.38
2023-02-23T17:45:58.196Z,21.20
2023-02-23T17:48:26.855Z,20.67
2023-02-23T17:51:05.152Z,21.90
2023-02-23T17:53:32.691Z,22.40
2023-02-23T17:55:59.684Z,19.13
2023-02-23T17:58:26.897Z,19.60
2023-02-23T18:01:00.602Z,20.98
2023-02-23T18:03:32.005Z,20.48
2023-02-23T18:06:08.643Z,20.40
2023-02-23T18:08:36.865Z,22.63
2023-02-23T18:11:03.981Z,18.73
2023-02-23T18:13:33.206Z,18.63
2023-02-23T18:16:10.930Z,18.60
2023-02-23T18:18:44.972Z,17.08
2023-02-23T18:21:16.031Z,19.45
2023-02-23T18:23:43.448Z,18.08
2023-02-23T18:26:17.401Z,19.50
2023-02-23T18:28:45.682Z,19.45
2023-02-23T18:31:15.909Z,18.30
2023-02-23T18:33:44.690Z,15.63
2023-02-23T18:36:28.167Z,18.65
2023-02-23T18:38:57.555Z,17.20
2023-02-23T18:41:30.518Z,16.40
2023-02-23T18:43:59.979Z,21.65
2023-02-23T18:46:27.429Z,21.65
2023-02-23T18:48:56.805Z,19.77
2023-02-23T18:51:25.678Z,16.02
2023-02-23T18:53:53.562Z,17.30
2023-02-23T18:56:25.080Z,17.48
2023-02-23T18:59:01.256Z,15.35
2023-02-23T19:01:33.234Z,14.13
2023-02-23T19:04:02.125Z,18.40
2023-02-23T19:06:30.402Z,16.25
2023-02-23T19:08:59.473Z,15.23
2023-02-23T19:11:30.553Z,13.77
2023-02-23T19:14:01.112Z,16.42
2023-02-23T19:16:31.201Z,11.05
2023-02-23T19:18:59.633Z,15.13
2023-02-23T19:21:26.718Z,14.48
2023-02-23T19:23:57.511Z,15.88
2023-02-23T19:26:25.786Z,11.88
2023-02-23T19:28:53.281Z,13.50
2023-02-23T19:31:24.177Z,13.60
2023-02-23T19:33:52.240Z,18.65
2023-02-23T19:36:23.818Z,15.40
2023-02-23T19:38:50.563Z,17.52
2023-02-23T19:41:21.468Z,19.25
2023-02-23T19:43:48.555Z,17.50
2023-02-23T19:46:17.320Z,19.63
2023-02-23T19:48:48.516Z,14.40
2023-02-23T19:51:15.266Z,12.00
2023-02-23T19:53:41.966Z,12.70
2023-02-23T19:56:12.904Z,13.55
2023-02-23T19:58:46.453Z,15.75
2023-02-23T20:01:17.081Z,17.10
2023-02-23T20:03:47.289Z,30.17
2023-02-23T20:06:17.553Z,21.80
2023-02-23T20:08:45.898Z,24.27
2023-02-23T20:11:12.664Z,16.83
2023-02-23T20:13:40.301Z,22.02
2023-02-23T20:16:11.102Z,19.30
2023-02-23T20:18:40.136Z,20.00
2023-02-23T20:21:16.061Z,24.50
2023-02-23T20:23:44.614Z,27.45
2023-02-23T20:26:16.158Z,23.00
2023-02-23T20:28:42.930Z,20.25
2023-02-23T20:31:32.962Z,19.83
2023-02-23T20:34:05.082Z,17.10
2023-02-23T20:39:00.217Z,15.52
2023-02-23T20:41:31.475Z,16.15
2023-02-23T20:44:00.638Z,16.30
2023-02-23T20:46:28.360Z,16.73
2023-02-23T20:48:55.196Z,14.88
2023-02-23T20:51:22.825Z,15.85
2023-02-23T20:53:49.777Z,14.82
2023-02-23T20:56:19.268Z,18.60
2023-02-23T20:58:47.184Z,19.10
2023-02-23T21:01:19.170Z,20.20
2023-02-23T21:03:46.578Z,14.93
2023-02-23T21:06:13.467Z,16.25
2023-02-23T21:08:42.472Z,19.55
2023-02-23T21:11:09.230Z,18.80
2023-02-23T21:13:36.480Z,19.45
2023-02-23T21:16:03.541Z,17.42
2023-02-23T21:18:31.169Z,20.10
2023-02-23T21:21:09.658Z,15.65
2023-02-23T21:23:39.157Z,15.52
2023-02-23T21:26:15.844Z,13.55
2023-02-23T21:28:45.385Z,12.88
2023-02-23T21:31:14.231Z,14.82
2023-02-23T21:33:43.463Z,10.27
2023-02-23T21:36:12.460Z,14.63
2023-02-23T21:38:41.898Z,14.23
2023-02-23T21:41:09.612Z,9.05
2023-02-23T21:43:38.538Z,12.25
2023-02-23T21:46:12.116Z,12.57
2023-02-23T21:48:38.900Z,10.68
2023-02-23T21:51:08.881Z,8.15
2023-02-23T21:53:37.493Z,11.02
2023-02-23T21:56:21.086Z,10.73
2023-02-23T21:58:50.851Z,13.05
2023-02-23T22:01:27.491Z,13.20
2023-02-23T22:03:55.088Z,16.30
2023-02-23T22:06:26.036Z,16.02
2023-02-23T22:08:53.982Z,17.80
2023-02-23T22:11:25.838Z,14.15
2023-02-23T22:13:58.681Z,15.00
2023-02-23T22:16:35.847Z,18.70
2023-02-23T22:19:04.205Z,15.57
2023-02-23T22:21:37.124Z,21.40
2023-02-23T22:24:05.395Z,23.75
2023-02-23T22:26:39.109Z,17.13
2023-02-23T22:29:08.722Z,22.20
2023-02-23T22:31:37.601Z,16.77
2023-02-23T22:34:06.069Z,29.90
2023-02-23T22:36:34.220Z,27.25
2023-02-23T22:39:02.081Z,37.40
2023-02-23T22:41:31.480Z,33.53
2023-02-23T22:43:58.953Z,25.80
2023-02-23T22:46:26.195Z,12.73
2023-02-23T22:48:53.382Z,25.90
2023-02-23T22:51:20.646Z,28.05
2023-02-23T22:53:47.663Z,22.55
2023-02-23T22:56:14.426Z,26.58
2023-02-23T22:58:42.135Z,26.10
2023-02-23T23:01:11.934Z,21.63
2023-02-23T23:03:48.026Z,22.35
2023-02-23T23:06:21.762Z,15.10
2023-02-23T23:08:51.740Z,20.73
2023-02-23T23:11:23.034Z,23.52
2023-02-23T23:14:01.675Z,13.48
2023-02-23T23:16:32.572Z,17.83
2023-02-23T23:19:03.877Z,18.85
2023-02-23T23:21:33.958Z,15.67
2023-02-23T23:24:06.521Z,15.63
2023-02-23T23:26:39.546Z,22.05
2023-02-23T23:29:10.170Z,14.77
2023-02-23T23:31:39.593Z,19.52
2023-02-23T23:34:10.620Z,11.07
2023-02-23T23:36:48.864Z,12.07
2023-02-23T23:39:18.308Z,15.35
2023-02-23T23:41:48.281Z,8.52
2023-02-23T23:44:21.312Z,18.15
2023-02-23T23:46:52.679Z,14.05
2023-02-23T23:49:23.097Z,16.98
2023-02-23T23:51:55.900Z,15.30
2023-02-23T23:54:29.892Z,18.30
2023-02-23T23:56:58.818Z,18.55
2023-02-23T23:59:26.662Z,14.38
